North Washington, Pennsylvania
Current Conditions -  °F | °C
As of 7:35 AM on Thursday 23 Oct 2014 (Local Time) from KBTP Reporting Station
Overcast Overcast  
Wind Chill: 44°   Ceiling: 2300
Heat Index: 46°   Visibility: 10mi
Dew Point: 39°   Wind: 6mph
Humidity: 76%   Direction: 300°WNW
Pressure: 30.14"   Gusts: NA
Location:  41.04°N, 79.81°W
Report Text: KBTP 231135Z AUTO 30005KT 10SM OVC023 08/04 A3014 RMK AO1
Loading
Personal Weather Stations






























Interactive Weather Map
Tropical Storm Tracking
New forecast layout! Learn more

10-Day Weather Forecast

Advertisements
Track Severe Weather on mobile